OIIE/IKA METAR and TAF weather

Enter ICAO airport designator
Station Type Date Time Source
OIIE METAR 2023/02/05 13:30 UTC NOAA

OIIE 051330Z 35008KT 9999 FEW035 11/M10 Q1015


Station Type Date Time Source
OIIE Decoded METAR 2023/02/05 13:30 UTC NOAA

Station name not available
Feb 05, 2023 - 08:30 AM EST / 2023.02.05 1330 UTC
Wind: from the N (350 degrees) at 9 MPH (8 KT):0
Visibility: greater than 7 mile(s):0
Sky conditions: mostly clear
Temperature: 51 F (11 C)
Dew Point: 14 F (-10 C)
Relative Humidity: 21%
Pressure (altimeter): 29.97 in. Hg (1015 hPa)
ob: OIIE 051330Z 35008KT 9999 FEW035 11/M10 Q1015
cycle: 13

Station Type Date Time Source
OIIE TAF 2023/02/05 18:00 UTC NOAA

TAF OIIE 041750Z 0418/0524 30008KT CAVOK
TEMPO 0506/0514 30008KT 8000 FEW035TCU BKN100

Example: see airport list